TimeCST,TemperatureF,Dew PointF,Humidity,Sea Level PressureIn,VisibilityMPH,Wind Direction,Wind SpeedMPH,Gust SpeedMPH,PrecipitationIn,Events,Conditions,WindDirDegrees,DateUTC
12:53 AM,64.0,62.1,93,29.94,10.0,South,8.1,-,N/A,,Clear,190,2012-11-26 06:53:00
1:53 AM,64.0,62.1,93,29.92,10.0,South,5.8,-,N/A,,Clear,180,2012-11-26 07:53:00
2:53 AM,63.0,61.0,93,29.92,9.0,South,5.8,-,N/A,,Clear,180,2012-11-26 08:53:00
3:53 AM,62.1,60.1,93,29.92,5.0,SSE,3.5,-,0.02,,Clear,160,2012-11-26 09:53:00
3:59 AM,60.8,60.8,100,29.92,1.5,SSE,3.5,-,N/A,,Partly Cloudy,150,2012-11-26 09:59:00
4:01 AM,60.8,60.8,100,29.92,0.8,SSE,4.6,-,N/A,,Mist,150,2012-11-26 10:01:00
4:09 AM,60.8,59.0,94,29.92,0.5,South,3.5,-,N/A,Fog,Fog,170,2012-11-26 10:09:00
4:16 AM,60.8,59.0,94,29.92,0.2,South,4.6,-,N/A,Fog,Fog,170,2012-11-26 10:16:00
4:22 AM,60.8,59.0,94,29.92,0.5,SSE,3.5,-,N/A,Fog,Fog,160,2012-11-26 10:22:00
4:42 AM,60.8,60.8,100,29.93,0.8,Calm,Calm,-,N/A,,Overcast,0,2012-11-26 10:42:00
4:53 AM,61.0,60.1,97,29.92,0.5,South,3.5,-,N/A,Fog,Fog,170,2012-11-26 10:53:00
5:26 AM,62.6,60.8,94,29.93,1.0,South,4.6,-,N/A,,Mist,170,2012-11-26 11:26:00
5:41 AM,62.6,60.8,94,29.93,0.8,Calm,Calm,-,N/A,,Mist,0,2012-11-26 11:41:00
5:50 AM,62.6,60.8,94,29.94,0.5,Calm,Calm,-,N/A,Fog,Fog,0,2012-11-26 11:50:00
5:53 AM,62.1,61.0,96,29.94,0.2,Calm,Calm,-,N/A,Fog,Fog,0,2012-11-26 11:53:00
6:53 AM,62.1,61.0,96,29.96,0.2,Calm,Calm,-,N/A,Fog,Fog,0,2012-11-26 12:53:00
7:53 AM,63.0,62.1,97,29.98,0.2,Calm,Calm,-,N/A,Fog,Fog,0,2012-11-26 13:53:00
8:53 AM,64.9,64.0,97,29.99,0.2,SE,4.6,-,N/A,Fog,Fog,140,2012-11-26 14:53:00
9:13 AM,64.4,64.4,100,30.00,0.8,SSE,4.6,-,N/A,,Mist,150,2012-11-26 15:13:00
9:19 AM,66.2,64.4,94,30.00,2.0,SSE,4.6,-,N/A,,Overcast,150,2012-11-26 15:19:00
9:33 AM,66.2,64.4,94,30.00,5.0,SSE,4.6,-,N/A,,Mostly Cloudy,160,2012-11-26 15:33:00
9:53 AM,68.0,66.0,93,30.00,10.0,South,5.8,-,N/A,,Partly Cloudy,180,2012-11-26 15:53:00
10:53 AM,77.0,64.0,64,29.99,10.0,South,11.5,-,N/A,,Clear,180,2012-11-26 16:53:00
11:53 AM,82.0,61.0,49,29.97,10.0,South,13.8,20.7,N/A,,Clear,190,2012-11-26 17:53:00
12:53 PM,84.0,60.1,44,29.95,10.0,SW,15.0,-,N/A,,Clear,220,2012-11-26 18:53:00
1:53 PM,82.9,60.1,46,29.93,10.0,SW,11.5,-,N/A,,Clear,220,2012-11-26 19:53:00
2:53 PM,84.9,61.0,44,29.92,10.0,SW,9.2,-,N/A,,Clear,220,2012-11-26 20:53:00
3:53 PM,82.9,61.0,47,29.93,10.0,SSW,4.6,-,N/A,,Clear,210,2012-11-26 21:53:00
4:53 PM,82.0,61.0,49,29.95,10.0,Calm,Calm,-,N/A,,Clear,0,2012-11-26 22:53:00
5:53 PM,80.1,61.0,52,29.98,10.0,WNW,6.9,-,N/A,,Partly Cloudy,290,2012-11-26 23:53:00
6:53 PM,77.0,62.1,60,29.99,10.0,WNW,5.8,-,N/A,,Mostly Cloudy,300,2012-11-27 00:53:00
7:53 PM,75.0,63.0,66,30.02,10.0,NW,6.9,-,N/A,,Clear,310,2012-11-27 01:53:00
8:53 PM,73.9,62.1,66,30.04,10.0,NW,6.9,-,N/A,,Clear,320,2012-11-27 02:53:00
9:53 PM,72.0,61.0,68,30.06,10.0,North,3.5,-,N/A,,Scattered Clouds,360,2012-11-27 03:53:00
10:53 PM,71.1,61.0,70,30.09,10.0,West,3.5,-,N/A,,Partly Cloudy,280,2012-11-27 04:53:00
11:53 PM,68.0,60.1,76,30.09,10.0,South,4.6,-,N/A,,Mostly Cloudy,170,2012-11-27 05:53:00